KCTZ/CTZ METAR and TAF weather

Enter ICAO airport designator
Station Type Date Time Source
KCTZ METAR 2020/09/19 05:15 UTC NOAA

KCTZ 190515Z AUTO 02006KT 10SM CLR 19/18 A3006 RMK AO2 T01870177


Station Type Date Time Source
KCTZ Decoded METAR 2020/09/19 05:15 UTC NOAA

Clinton, Sampson County Airport, NC, United States (KCTZ) 34-58-32N 078-21-53W
Sep 19, 2020 - 01:15 AM EDT / 2020.09.19 0515 UTC
Wind: from the NNE (020 degrees) at 7 MPH (6 KT):0
Visibility: 10 mile(s):0
Sky conditions: clear
Temperature: 65.7 F (18.7 C)
Dew Point: 63.9 F (17.7 C)
Relative Humidity: 93%
Pressure (altimeter): 30.06 in. Hg (1017 hPa)
ob: KCTZ 190515Z AUTO 02006KT 10SM CLR 19/18 A3006 RMK AO2 T01870177
cycle: 5

Station Type Date Time Source
KCTZ TAF UTC NOAA

Error!

Example: see airport list